sensor_id;sensor_type;location;lat;lon;timestamp;temperature;humidity
25342;DHT22;13298;48.792;9.154;2022-07-23T00:01:20;24.00;86.90
25342;DHT22;13298;48.792;9.154;2022-07-23T00:03:46;23.90;87.60
25342;DHT22;13298;48.792;9.154;2022-07-23T00:06:12;23.90;87.70
25342;DHT22;13298;48.792;9.154;2022-07-23T00:08:38;23.80;88.20
25342;DHT22;13298;48.792;9.154;2022-07-23T00:11:04;23.80;88.30
25342;DHT22;13298;48.792;9.154;2022-07-23T00:13:30;23.70;88.30
25342;DHT22;13298;48.792;9.154;2022-07-23T00:15:55;23.70;89.20
25342;DHT22;13298;48.792;9.154;2022-07-23T00:18:21;23.70;89.10
25342;DHT22;13298;48.792;9.154;2022-07-23T00:20:47;23.60;90.10
25342;DHT22;13298;48.792;9.154;2022-07-23T00:23:13;23.60;90.10
25342;DHT22;13298;48.792;9.154;2022-07-23T00:25:39;23.50;90.10
25342;DHT22;13298;48.792;9.154;2022-07-23T00:28:05;23.50;90.20
25342;DHT22;13298;48.792;9.154;2022-07-23T00:30:31;23.40;90.30
25342;DHT22;13298;48.792;9.154;2022-07-23T00:32:59;23.40;90.60
25342;DHT22;13298;48.792;9.154;2022-07-23T00:35:35;23.40;90.60
25342;DHT22;13298;48.792;9.154;2022-07-23T00:38:03;23.30;90.60
25342;DHT22;13298;48.792;9.154;2022-07-23T00:40:30;23.30;90.80
25342;DHT22;13298;48.792;9.154;2022-07-23T00:42:57;23.30;91.00
25342;DHT22;13298;48.792;9.154;2022-07-23T00:45:24;23.20;92.80
25342;DHT22;13298;48.792;9.154;2022-07-23T00:47:50;23.00;93.90
25342;DHT22;13298;48.792;9.154;2022-07-23T00:50:16;22.90;94.20
25342;DHT22;13298;48.792;9.154;2022-07-23T00:52:41;22.80;94.30
25342;DHT22;13298;48.792;9.154;2022-07-23T00:55:09;22.70;94.40
25342;DHT22;13298;48.792;9.154;2022-07-23T00:57:36;22.60;94.00
25342;DHT22;13298;48.792;9.154;2022-07-23T01:00:04;22.50;94.10
25342;DHT22;13298;48.792;9.154;2022-07-23T01:02:31;22.40;94.10
25342;DHT22;13298;48.792;9.154;2022-07-23T01:04:57;22.30;94.20
25342;DHT22;13298;48.792;9.154;2022-07-23T01:07:23;22.20;94.30
25342;DHT22;13298;48.792;9.154;2022-07-23T01:09:51;22.20;94.40
25342;DHT22;13298;48.792;9.154;2022-07-23T01:12:17;22.10;94.80
25342;DHT22;13298;48.792;9.154;2022-07-23T01:14:43;22.10;94.70
25342;DHT22;13298;48.792;9.154;2022-07-23T01:17:09;22.10;94.90
25342;DHT22;13298;48.792;9.154;2022-07-23T01:19:35;22.10;94.80
25342;DHT22;13298;48.792;9.154;2022-07-23T01:22:02;22.10;94.80
25342;DHT22;13298;48.792;9.154;2022-07-23T01:24:29;22.10;94.80
25342;DHT22;13298;48.792;9.154;2022-07-23T01:26:55;22.00;94.80
25342;DHT22;13298;48.792;9.154;2022-07-23T01:29:21;22.00;94.90
25342;DHT22;13298;48.792;9.154;2022-07-23T01:31:47;22.00;94.90
25342;DHT22;13298;48.792;9.154;2022-07-23T01:34:13;21.90;95.20
25342;DHT22;13298;48.792;9.154;2022-07-23T01:36:39;21.90;95.20
25342;DHT22;13298;48.792;9.154;2022-07-23T01:39:06;21.90;95.40
25342;DHT22;13298;48.792;9.154;2022-07-23T01:41:33;21.90;95.60
25342;DHT22;13298;48.792;9.154;2022-07-23T01:43:59;21.80;95.80
25342;DHT22;13298;48.792;9.154;2022-07-23T01:46:25;21.80;95.80
25342;DHT22;13298;48.792;9.154;2022-07-23T01:48:51;21.80;96.30
25342;DHT22;13298;48.792;9.154;2022-07-23T01:51:16;21.80;96.30
25342;DHT22;13298;48.792;9.154;2022-07-23T01:53:42;21.70;96.30
25342;DHT22;13298;48.792;9.154;2022-07-23T01:56:08;21.70;96.20
25342;DHT22;13298;48.792;9.154;2022-07-23T01:58:33;21.60;96.30
25342;DHT22;13298;48.792;9.154;2022-07-23T02:01:00;21.60;96.50
25342;DHT22;13298;48.792;9.154;2022-07-23T02:03:25;21.50;96.80
25342;DHT22;13298;48.792;9.154;2022-07-23T02:05:51;21.40;97.50
25342;DHT22;13298;48.792;9.154;2022-07-23T02:08:17;21.30;97.40
25342;DHT22;13298;48.792;9.154;2022-07-23T02:10:43;21.30;97.30
25342;DHT22;13298;48.792;9.154;2022-07-23T02:13:09;21.20;97.30
25342;DHT22;13298;48.792;9.154;2022-07-23T02:15:35;21.20;97.70
25342;DHT22;13298;48.792;9.154;2022-07-23T02:18:01;21.10;98.00
25342;DHT22;13298;48.792;9.154;2022-07-23T02:20:27;21.10;98.20
25342;DHT22;13298;48.792;9.154;2022-07-23T02:22:53;21.00;98.50
25342;DHT22;13298;48.792;9.154;2022-07-23T02:25:18;20.90;98.70
25342;DHT22;13298;48.792;9.154;2022-07-23T02:27:44;20.80;98.60
25342;DHT22;13298;48.792;9.154;2022-07-23T02:30:10;20.80;98.90
25342;DHT22;13298;48.792;9.154;2022-07-23T02:32:36;20.70;99.00
25342;DHT22;13298;48.792;9.154;2022-07-23T02:35:03;20.70;99.20
25342;DHT22;13298;48.792;9.154;2022-07-23T02:37:30;20.70;99.60
25342;DHT22;13298;48.792;9.154;2022-07-23T02:39:55;20.60;99.90
25342;DHT22;13298;48.792;9.154;2022-07-23T02:42:21;20.50;99.90
25342;DHT22;13298;48.792;9.154;2022-07-23T02:44:49;20.50;99.90
25342;DHT22;13298;48.792;9.154;2022-07-23T02:47:16;20.40;99.90
25342;DHT22;13298;48.792;9.154;2022-07-23T02:49:41;20.40;99.90
25342;DHT22;13298;48.792;9.154;2022-07-23T02:52:07;20.40;99.90
25342;DHT22;13298;48.792;9.154;2022-07-23T02:54:35;20.40;99.90
25342;DHT22;13298;48.792;9.154;2022-07-23T02:57:02;20.40;99.90
25342;DHT22;13298;48.792;9.154;2022-07-23T02:59:27;20.50;99.90
25342;DHT22;13298;48.792;9.154;2022-07-23T03:01:53;20.50;99.90
25342;DHT22;13298;48.792;9.154;2022-07-23T03:04:19;20.60;99.90
25342;DHT22;13298;48.792;9.154;2022-07-23T03:06:44;20.60;99.90
25342;DHT22;13298;48.792;9.154;2022-07-23T03:09:10;20.70;99.90
25342;DHT22;13298;48.792;9.154;2022-07-23T03:11:36;20.70;99.90
25342;DHT22;13298;48.792;9.154;2022-07-23T03:14:01;20.70;99.90
25342;DHT22;13298;48.792;9.154;2022-07-23T03:16:27;20.60;99.90
25342;DHT22;13298;48.792;9.154;2022-07-23T03:18:53;20.60;99.90
25342;DHT22;13298;48.792;9.154;2022-07-23T03:21:19;20.60;99.90
25342;DHT22;13298;48.792;9.154;2022-07-23T03:23:44;20.60;99.90
25342;DHT22;13298;48.792;9.154;2022-07-23T03:26:10;20.60;99.90
25342;DHT22;13298;48.792;9.154;2022-07-23T03:28:36;20.60;99.90
25342;DHT22;13298;48.792;9.154;2022-07-23T03:31:01;20.60;99.90
25342;DHT22;13298;48.792;9.154;2022-07-23T03:33:27;20.60;99.90
25342;DHT22;13298;48.792;9.154;2022-07-23T03:35:53;20.60;99.90
25342;DHT22;13298;48.792;9.154;2022-07-23T03:38:18;20.50;99.90
25342;DHT22;13298;48.792;9.154;2022-07-23T03:40:44;20.50;99.90
25342;DHT22;13298;48.792;9.154;2022-07-23T03:43:10;20.40;99.90
25342;DHT22;13298;48.792;9.154;2022-07-23T03:45:35;20.40;99.90
25342;DHT22;13298;48.792;9.154;2022-07-23T03:48:01;20.30;99.90
25342;DHT22;13298;48.792;9.154;2022-07-23T03:50:27;20.30;99.90
25342;DHT22;13298;48.792;9.154;2022-07-23T03:52:53;20.30;99.90
25342;DHT22;13298;48.792;9.154;2022-07-23T03:55:19;20.30;99.90
25342;DHT22;13298;48.792;9.154;2022-07-23T03:57:45;20.30;99.90
25342;DHT22;13298;48.792;9.154;2022-07-23T04:00:11;20.30;99.90
25342;DHT22;13298;48.792;9.154;2022-07-23T04:02:39;20.30;99.90
25342;DHT22;13298;48.792;9.154;2022-07-23T04:05:05;20.30;99.90
25342;DHT22;13298;48.792;9.154;2022-07-23T04:07:31;20.30;99.90
25342;DHT22;13298;48.792;9.154;2022-07-23T04:09:57;20.30;99.90
25342;DHT22;13298;48.792;9.154;2022-07-23T04:12:23;20.40;99.90
25342;DHT22;13298;48.792;9.154;2022-07-23T04:14:49;20.50;99.90
25342;DHT22;13298;48.792;9.154;2022-07-23T04:17:15;20.50;99.90
25342;DHT22;13298;48.792;9.154;2022-07-23T04:19:41;20.60;99.90
25342;DHT22;13298;48.792;9.154;2022-07-23T04:22:09;20.70;99.90
25342;DHT22;13298;48.792;9.154;2022-07-23T04:24:35;20.80;99.90
25342;DHT22;13298;48.792;9.154;2022-07-23T04:27:01;20.90;99.90
25342;DHT22;13298;48.792;9.154;2022-07-23T04:29:27;20.90;99.90
25342;DHT22;13298;48.792;9.154;2022-07-23T04:31:53;21.00;99.90
25342;DHT22;13298;48.792;9.154;2022-07-23T04:34:19;21.00;99.90
25342;DHT22;13298;48.792;9.154;2022-07-23T04:36:45;21.10;99.90
25342;DHT22;13298;48.792;9.154;2022-07-23T04:39:10;21.10;99.90
25342;DHT22;13298;48.792;9.154;2022-07-23T04:41:36;21.20;99.90
25342;DHT22;13298;48.792;9.154;2022-07-23T04:44:02;21.20;99.90
25342;DHT22;13298;48.792;9.154;2022-07-23T04:46:28;21.20;99.90
25342;DHT22;13298;48.792;9.154;2022-07-23T04:48:54;21.30;99.90
25342;DHT22;13298;48.792;9.154;2022-07-23T04:51:20;21.30;99.90
25342;DHT22;13298;48.792;9.154;2022-07-23T04:53:45;21.40;99.90
25342;DHT22;13298;48.792;9.154;2022-07-23T04:56:11;21.50;99.90
25342;DHT22;13298;48.792;9.154;2022-07-23T04:58:37;21.50;99.90
25342;DHT22;13298;48.792;9.154;2022-07-23T05:01:03;21.60;99.90
25342;DHT22;13298;48.792;9.154;2022-07-23T05:03:29;21.60;99.90
25342;DHT22;13298;48.792;9.154;2022-07-23T05:05:55;21.70;99.90
25342;DHT22;13298;48.792;9.154;2022-07-23T05:08:20;21.70;99.90
25342;DHT22;13298;48.792;9.154;2022-07-23T05:10:47;21.70;99.90
25342;DHT22;13298;48.792;9.154;2022-07-23T05:13:15;21.70;99.90
25342;DHT22;13298;48.792;9.154;2022-07-23T05:15:42;21.70;99.90
25342;DHT22;13298;48.792;9.154;2022-07-23T05:18:08;21.80;99.90
25342;DHT22;13298;48.792;9.154;2022-07-23T05:20:33;21.90;99.90
25342;DHT22;13298;48.792;9.154;2022-07-23T05:22:59;21.90;99.90
25342;DHT22;13298;48.792;9.154;2022-07-23T05:25:25;22.10;99.90
25342;DHT22;13298;48.792;9.154;2022-07-23T05:27:51;22.20;99.90
25342;DHT22;13298;48.792;9.154;2022-07-23T05:30:16;22.40;99.90
25342;DHT22;13298;48.792;9.154;2022-07-23T05:32:42;22.60;99.90
25342;DHT22;13298;48.792;9.154;2022-07-23T05:35:08;22.80;99.20
25342;DHT22;13298;48.792;9.154;2022-07-23T05:37:34;23.00;98.90
25342;DHT22;13298;48.792;9.154;2022-07-23T05:40:02;23.10;98.70
25342;DHT22;13298;48.792;9.154;2022-07-23T05:42:29;23.00;99.60
25342;DHT22;13298;48.792;9.154;2022-07-23T05:44:54;22.90;99.40
25342;DHT22;13298;48.792;9.154;2022-07-23T05:47:20;22.80;99.40
25342;DHT22;13298;48.792;9.154;2022-07-23T05:49:46;22.80;99.50
25342;DHT22;13298;48.792;9.154;2022-07-23T05:52:11;23.00;99.50
25342;DHT22;13298;48.792;9.154;2022-07-23T05:54:37;23.10;99.30
25342;DHT22;13298;48.792;9.154;2022-07-23T05:57:04;23.20;98.60
25342;DHT22;13298;48.792;9.154;2022-07-23T05:59:30;23.40;97.40
25342;DHT22;13298;48.792;9.154;2022-07-23T06:01:56;23.40;97.00
25342;DHT22;13298;48.792;9.154;2022-07-23T06:04:21;23.40;97.00
25342;DHT22;13298;48.792;9.154;2022-07-23T06:06:47;23.30;97.30
25342;DHT22;13298;48.792;9.154;2022-07-23T06:09:13;23.30;97.40
25342;DHT22;13298;48.792;9.154;2022-07-23T06:11:40;23.20;97.40
25342;DHT22;13298;48.792;9.154;2022-07-23T06:14:06;23.20;97.90
25342;DHT22;13298;48.792;9.154;2022-07-23T06:16:31;23.20;98.50
25342;DHT22;13298;48.792;9.154;2022-07-23T06:18:57;23.20;98.90
25342;DHT22;13298;48.792;9.154;2022-07-23T06:21:23;23.20;99.20
25342;DHT22;13298;48.792;9.154;2022-07-23T06:23:49;23.10;99.50
25342;DHT22;13298;48.792;9.154;2022-07-23T06:26:15;23.10;99.70
25342;DHT22;13298;48.792;9.154;2022-07-23T06:28:40;23.00;99.90
25342;DHT22;13298;48.792;9.154;2022-07-23T06:31:06;22.90;99.90
25342;DHT22;13298;48.792;9.154;2022-07-23T06:33:32;22.90;99.90
25342;DHT22;13298;48.792;9.154;2022-07-23T06:35:58;23.00;99.70
25342;DHT22;13298;48.792;9.154;2022-07-23T06:38:24;23.10;99.40
25342;DHT22;13298;48.792;9.154;2022-07-23T06:40:50;23.20;99.20
25342;DHT22;13298;48.792;9.154;2022-07-23T06:43:16;23.40;98.90
25342;DHT22;13298;48.792;9.154;2022-07-23T06:45:42;23.70;98.50
25342;DHT22;13298;48.792;9.154;2022-07-23T06:48:07;24.00;97.80
25342;DHT22;13298;48.792;9.154;2022-07-23T06:50:33;24.30;97.20
25342;DHT22;13298;48.792;9.154;2022-07-23T06:52:59;24.50;96.50
25342;DHT22;13298;48.792;9.154;2022-07-23T06:55:25;24.50;95.90
25342;DHT22;13298;48.792;9.154;2022-07-23T06:57:51;24.50;96.40
25342;DHT22;13298;48.792;9.154;2022-07-23T07:00:16;24.30;96.80
25342;DHT22;13298;48.792;9.154;2022-07-23T07:02:42;24.20;97.00
25342;DHT22;13298;48.792;9.154;2022-07-23T07:05:08;24.00;97.80
25342;DHT22;13298;48.792;9.154;2022-07-23T07:07:34;23.80;97.00
25342;DHT22;13298;48.792;9.154;2022-07-23T07:10:01;23.50;96.80
25342;DHT22;13298;48.792;9.154;2022-07-23T07:12:28;23.40;97.00
25342;DHT22;13298;48.792;9.154;2022-07-23T07:14:53;23.30;96.70
25342;DHT22;13298;48.792;9.154;2022-07-23T07:17:19;23.20;97.00
25342;DHT22;13298;48.792;9.154;2022-07-23T07:19:45;23.10;97.00
25342;DHT22;13298;48.792;9.154;2022-07-23T07:22:11;23.00;97.60
25342;DHT22;13298;48.792;9.154;2022-07-23T07:24:37;22.90;97.80
25342;DHT22;13298;48.792;9.154;2022-07-23T07:27:02;22.80;98.10
25342;DHT22;13298;48.792;9.154;2022-07-23T07:29:28;22.80;98.70
25342;DHT22;13298;48.792;9.154;2022-07-23T07:31:54;22.70;99.00
25342;DHT22;13298;48.792;9.154;2022-07-23T07:34:20;22.60;99.90
25342;DHT22;13298;48.792;9.154;2022-07-23T07:36:46;22.50;99.90
25342;DHT22;13298;48.792;9.154;2022-07-23T07:39:11;22.50;99.90
25342;DHT22;13298;48.792;9.154;2022-07-23T07:41:37;22.30;99.90
25342;DHT22;13298;48.792;9.154;2022-07-23T07:44:03;22.30;99.90
25342;DHT22;13298;48.792;9.154;2022-07-23T07:46:29;22.40;99.90
25342;DHT22;13298;48.792;9.154;2022-07-23T07:48:55;22.50;99.90
25342;DHT22;13298;48.792;9.154;2022-07-23T07:51:21;22.70;99.90
25342;DHT22;13298;48.792;9.154;2022-07-23T07:53:47;22.90;99.90
25342;DHT22;13298;48.792;9.154;2022-07-23T07:56:13;22.90;99.90
25342;DHT22;13298;48.792;9.154;2022-07-23T07:58:38;22.90;99.90
25342;DHT22;13298;48.792;9.154;2022-07-23T08:01:04;23.00;99.90
25342;DHT22;13298;48.792;9.154;2022-07-23T08:03:30;23.10;99.90
25342;DHT22;13298;48.792;9.154;2022-07-23T08:05:56;23.20;99.90
25342;DHT22;13298;48.792;9.154;2022-07-23T08:08:22;23.30;99.90
25342;DHT22;13298;48.792;9.154;2022-07-23T08:10:47;23.50;99.90
25342;DHT22;13298;48.792;9.154;2022-07-23T08:13:14;23.80;99.70
25342;DHT22;13298;48.792;9.154;2022-07-23T08:15:41;24.00;99.40
25342;DHT22;13298;48.792;9.154;2022-07-23T08:18:07;24.10;98.80
25342;DHT22;13298;48.792;9.154;2022-07-23T08:20:33;24.10;98.20
25342;DHT22;13298;48.792;9.154;2022-07-23T08:23:04;23.90;98.40
25342;DHT22;13298;48.792;9.154;2022-07-23T08:25:36;23.70;98.70
25342;DHT22;13298;48.792;9.154;2022-07-23T08:28:05;23.60;98.00
25342;DHT22;13298;48.792;9.154;2022-07-23T08:30:33;23.50;98.00
25342;DHT22;13298;48.792;9.154;2022-07-23T08:33:01;23.60;98.00
25342;DHT22;13298;48.792;9.154;2022-07-23T08:35:30;23.80;97.70
25342;DHT22;13298;48.792;9.154;2022-07-23T08:37:58;23.90;97.10
25342;DHT22;13298;48.792;9.154;2022-07-23T08:40:29;24.00;96.90
25342;DHT22;13298;48.792;9.154;2022-07-23T08:42:57;24.30;96.40
25342;DHT22;13298;48.792;9.154;2022-07-23T08:45:24;24.50;96.10
25342;DHT22;13298;48.792;9.154;2022-07-23T08:47:52;24.70;95.40
25342;DHT22;13298;48.792;9.154;2022-07-23T08:50:20;24.80;95.30
25342;DHT22;13298;48.792;9.154;2022-07-23T08:52:49;25.00;94.50
25342;DHT22;13298;48.792;9.154;2022-07-23T08:55:21;24.90;94.10
25342;DHT22;13298;48.792;9.154;2022-07-23T08:57:51;25.00;94.00
25342;DHT22;13298;48.792;9.154;2022-07-23T09:00:19;25.10;94.00
25342;DHT22;13298;48.792;9.154;2022-07-23T09:02:47;25.10;93.80
25342;DHT22;13298;48.792;9.154;2022-07-23T09:05:15;25.20;93.40
25342;DHT22;13298;48.792;9.154;2022-07-23T09:10:56;26.00;92.50
25342;DHT22;13298;48.792;9.154;2022-07-23T09:13:39;26.50;91.80
25342;DHT22;13298;48.792;9.154;2022-07-23T09:16:12;26.90;91.30
25342;DHT22;13298;48.792;9.154;2022-07-23T09:18:42;27.40;90.50
25342;DHT22;13298;48.792;9.154;2022-07-23T09:21:24;27.70;88.00
25342;DHT22;13298;48.792;9.154;2022-07-23T09:26:26;27.80;85.40
25342;DHT22;13298;48.792;9.154;2022-07-23T09:36:58;27.70;84.80
25342;DHT22;13298;48.792;9.154;2022-07-23T09:39:34;27.80;84.60
25342;DHT22;13298;48.792;9.154;2022-07-23T09:44:47;27.90;83.70
25342;DHT22;13298;48.792;9.154;2022-07-23T09:47:15;28.00;84.20
25342;DHT22;13298;48.792;9.154;2022-07-23T09:52:34;27.90;80.90
25342;DHT22;13298;48.792;9.154;2022-07-23T09:55:03;27.40;82.60
25342;DHT22;13298;48.792;9.154;2022-07-23T09:57:32;27.20;84.60
25342;DHT22;13298;48.792;9.154;2022-07-23T10:00:05;27.10;83.40
25342;DHT22;13298;48.792;9.154;2022-07-23T10:02:33;27.00;83.90
25342;DHT22;13298;48.792;9.154;2022-07-23T10:05:01;27.00;84.20
25342;DHT22;13298;48.792;9.154;2022-07-23T10:07:31;27.00;81.60
25342;DHT22;13298;48.792;9.154;2022-07-23T10:10:00;26.90;81.90
25342;DHT22;13298;48.792;9.154;2022-07-23T10:12:27;27.00;81.70
25342;DHT22;13298;48.792;9.154;2022-07-23T10:15:04;26.90;80.40
25342;DHT22;13298;48.792;9.154;2022-07-23T10:17:34;26.90;82.10
25342;DHT22;13298;48.792;9.154;2022-07-23T10:20:00;26.90;81.40
25342;DHT22;13298;48.792;9.154;2022-07-23T10:22:29;27.00;81.20
25342;DHT22;13298;48.792;9.154;2022-07-23T10:31:03;27.10;82.00
25342;DHT22;13298;48.792;9.154;2022-07-23T10:34:11;27.30;82.40
25342;DHT22;13298;48.792;9.154;2022-07-23T10:36:51;27.50;79.20
25342;DHT22;13298;48.792;9.154;2022-07-23T10:39:37;27.70;79.00
25342;DHT22;13298;48.792;9.154;2022-07-23T10:42:16;27.80;77.20
25342;DHT22;13298;48.792;9.154;2022-07-23T10:44:45;27.90;74.10
25342;DHT22;13298;48.792;9.154;2022-07-23T10:47:21;27.90;74.60
25342;DHT22;13298;48.792;9.154;2022-07-23T10:50:19;27.90;77.50
25342;DHT22;13298;48.792;9.154;2022-07-23T10:57:59;27.70;75.80
25342;DHT22;13298;48.792;9.154;2022-07-23T11:00:30;27.80;77.30
25342;DHT22;13298;48.792;9.154;2022-07-23T11:03:28;27.90;78.90
25342;DHT22;13298;48.792;9.154;2022-07-23T11:05:55;28.10;77.10
25342;DHT22;13298;48.792;9.154;2022-07-23T11:08:21;28.10;75.90
25342;DHT22;13298;48.792;9.154;2022-07-23T11:11:08;28.20;75.90
25342;DHT22;13298;48.792;9.154;2022-07-23T11:13:48;28.20;77.10
25342;DHT22;13298;48.792;9.154;2022-07-23T11:16:22;28.00;76.60
25342;DHT22;13298;48.792;9.154;2022-07-23T11:18:53;27.80;76.40
25342;DHT22;13298;48.792;9.154;2022-07-23T11:23:57;27.80;77.60
25342;DHT22;13298;48.792;9.154;2022-07-23T11:32:30;28.20;79.90
25342;DHT22;13298;48.792;9.154;2022-07-23T11:34:59;28.30;79.40
25342;DHT22;13298;48.792;9.154;2022-07-23T11:37:36;28.40;79.10
25342;DHT22;13298;48.792;9.154;2022-07-23T11:40:12;28.50;78.30
25342;DHT22;13298;48.792;9.154;2022-07-23T11:42:57;28.50;77.70
25342;DHT22;13298;48.792;9.154;2022-07-23T11:45:30;28.50;79.10
25342;DHT22;13298;48.792;9.154;2022-07-23T11:47:57;28.70;79.70
25342;DHT22;13298;48.792;9.154;2022-07-23T11:50:24;28.80;79.10
25342;DHT22;13298;48.792;9.154;2022-07-23T11:52:53;29.00;78.10
25342;DHT22;13298;48.792;9.154;2022-07-23T11:55:20;29.10;77.30
25342;DHT22;13298;48.792;9.154;2022-07-23T11:57:46;29.10;76.60
25342;DHT22;13298;48.792;9.154;2022-07-23T12:00:18;29.10;76.70
25342;DHT22;13298;48.792;9.154;2022-07-23T12:02:48;29.10;78.30
25342;DHT22;13298;48.792;9.154;2022-07-23T12:05:18;29.10;76.10
25342;DHT22;13298;48.792;9.154;2022-07-23T12:07:47;29.10;76.30
25342;DHT22;13298;48.792;9.154;2022-07-23T12:10:20;29.10;74.40
25342;DHT22;13298;48.792;9.154;2022-07-23T12:12:52;29.00;75.30
25342;DHT22;13298;48.792;9.154;2022-07-23T12:15:21;28.80;76.50
25342;DHT22;13298;48.792;9.154;2022-07-23T12:17:59;28.80;76.60
25342;DHT22;13298;48.792;9.154;2022-07-23T12:20:35;28.80;76.30
25342;DHT22;13298;48.792;9.154;2022-07-23T12:23:05;28.80;74.70
25342;DHT22;13298;48.792;9.154;2022-07-23T12:25:36;28.80;75.70
25342;DHT22;13298;48.792;9.154;2022-07-23T12:28:09;28.80;74.20
25342;DHT22;13298;48.792;9.154;2022-07-23T12:33:08;28.80;76.30
25342;DHT22;13298;48.792;9.154;2022-07-23T12:35:39;28.90;74.90
25342;DHT22;13298;48.792;9.154;2022-07-23T12:38:12;28.80;73.90
25342;DHT22;13298;48.792;9.154;2022-07-23T12:46:10;29.20;75.00
25342;DHT22;13298;48.792;9.154;2022-07-23T12:51:29;29.60;74.30
25342;DHT22;13298;48.792;9.154;2022-07-23T12:54:08;29.60;73.10
25342;DHT22;13298;48.792;9.154;2022-07-23T12:56:37;29.70;74.60
25342;DHT22;13298;48.792;9.154;2022-07-23T12:59:05;29.80;73.90
25342;DHT22;13298;48.792;9.154;2022-07-23T13:01:40;29.70;72.70
25342;DHT22;13298;48.792;9.154;2022-07-23T13:04:17;29.60;72.70
25342;DHT22;13298;48.792;9.154;2022-07-23T13:06:49;29.50;73.50
25342;DHT22;13298;48.792;9.154;2022-07-23T13:09:19;29.60;73.00
25342;DHT22;13298;48.792;9.154;2022-07-23T13:11:50;29.50;73.80
25342;DHT22;13298;48.792;9.154;2022-07-23T13:14:18;29.50;72.50
25342;DHT22;13298;48.792;9.154;2022-07-23T13:16:45;29.50;71.80
25342;DHT22;13298;48.792;9.154;2022-07-23T13:19:11;29.50;72.00
25342;DHT22;13298;48.792;9.154;2022-07-23T13:21:38;29.60;71.60
25342;DHT22;13298;48.792;9.154;2022-07-23T13:24:04;29.70;71.50
25342;DHT22;13298;48.792;9.154;2022-07-23T13:26:30;29.70;69.50
25342;DHT22;13298;48.792;9.154;2022-07-23T13:28:56;29.60;69.90
25342;DHT22;13298;48.792;9.154;2022-07-23T13:31:22;29.60;70.50
25342;DHT22;13298;48.792;9.154;2022-07-23T13:33:47;29.70;69.80
25342;DHT22;13298;48.792;9.154;2022-07-23T13:36:13;29.80;70.50
25342;DHT22;13298;48.792;9.154;2022-07-23T13:38:39;29.80;71.40
25342;DHT22;13298;48.792;9.154;2022-07-23T13:41:05;29.80;70.60
25342;DHT22;13298;48.792;9.154;2022-07-23T13:43:31;29.90;70.90
25342;DHT22;13298;48.792;9.154;2022-07-23T13:45:57;29.80;68.60
25342;DHT22;13298;48.792;9.154;2022-07-23T13:48:23;29.80;69.80
25342;DHT22;13298;48.792;9.154;2022-07-23T13:50:50;29.70;69.90
25342;DHT22;13298;48.792;9.154;2022-07-23T13:53:22;29.60;69.50
25342;DHT22;13298;48.792;9.154;2022-07-23T13:55:50;29.40;69.30
25342;DHT22;13298;48.792;9.154;2022-07-23T13:58:17;29.20;71.00
25342;DHT22;13298;48.792;9.154;2022-07-23T14:00:46;29.20;70.50
25342;DHT22;13298;48.792;9.154;2022-07-23T14:03:16;29.30;71.00
25342;DHT22;13298;48.792;9.154;2022-07-23T14:05:42;29.40;71.40
25342;DHT22;13298;48.792;9.154;2022-07-23T14:08:08;29.40;71.90
25342;DHT22;13298;48.792;9.154;2022-07-23T14:10:34;29.50;70.50
25342;DHT22;13298;48.792;9.154;2022-07-23T14:13:00;29.60;68.70
25342;DHT22;13298;48.792;9.154;2022-07-23T14:15:28;29.70;70.10
25342;DHT22;13298;48.792;9.154;2022-07-23T14:17:54;29.90;69.90
25342;DHT22;13298;48.792;9.154;2022-07-23T14:20:21;30.20;70.30
25342;DHT22;13298;48.792;9.154;2022-07-23T14:22:47;30.30;68.30
25342;DHT22;13298;48.792;9.154;2022-07-23T14:25:15;30.40;68.20
25342;DHT22;13298;48.792;9.154;2022-07-23T14:27:40;30.40;66.30
25342;DHT22;13298;48.792;9.154;2022-07-23T14:30:08;30.40;63.60
25342;DHT22;13298;48.792;9.154;2022-07-23T14:32:35;30.30;63.90
25342;DHT22;13298;48.792;9.154;2022-07-23T14:35:01;30.30;63.70
25342;DHT22;13298;48.792;9.154;2022-07-23T14:37:28;30.30;64.60
25342;DHT22;13298;48.792;9.154;2022-07-23T14:39:54;30.40;65.20
25342;DHT22;13298;48.792;9.154;2022-07-23T14:42:19;30.60;64.40
25342;DHT22;13298;48.792;9.154;2022-07-23T14:44:45;30.70;63.20
25342;DHT22;13298;48.792;9.154;2022-07-23T14:47:11;30.60;65.90
25342;DHT22;13298;48.792;9.154;2022-07-23T14:49:37;30.60;64.70
25342;DHT22;13298;48.792;9.154;2022-07-23T14:52:03;30.70;63.40
25342;DHT22;13298;48.792;9.154;2022-07-23T14:54:30;30.60;64.80
25342;DHT22;13298;48.792;9.154;2022-07-23T14:56:57;30.50;61.70
25342;DHT22;13298;48.792;9.154;2022-07-23T14:59:24;30.20;61.50
25342;DHT22;13298;48.792;9.154;2022-07-23T15:01:50;30.00;64.20
25342;DHT22;13298;48.792;9.154;2022-07-23T15:04:16;29.90;63.70
25342;DHT22;13298;48.792;9.154;2022-07-23T15:06:42;30.10;63.80
25342;DHT22;13298;48.792;9.154;2022-07-23T15:09:08;30.00;62.60
25342;DHT22;13298;48.792;9.154;2022-07-23T15:11:34;29.80;61.30
25342;DHT22;13298;48.792;9.154;2022-07-23T15:14:02;29.70;62.40
25342;DHT22;13298;48.792;9.154;2022-07-23T15:16:32;29.90;64.20
25342;DHT22;13298;48.792;9.154;2022-07-23T15:18:57;30.00;65.00
25342;DHT22;13298;48.792;9.154;2022-07-23T15:21:23;30.40;65.00
25342;DHT22;13298;48.792;9.154;2022-07-23T15:23:49;30.70;63.10
25342;DHT22;13298;48.792;9.154;2022-07-23T15:26:15;30.90;62.10
25342;DHT22;13298;48.792;9.154;2022-07-23T15:28:41;30.90;63.00
25342;DHT22;13298;48.792;9.154;2022-07-23T15:31:07;31.10;63.10
25342;DHT22;13298;48.792;9.154;2022-07-23T15:33:33;31.40;62.50
25342;DHT22;13298;48.792;9.154;2022-07-23T15:35:59;31.60;62.70
25342;DHT22;13298;48.792;9.154;2022-07-23T15:38:26;31.80;63.00
25342;DHT22;13298;48.792;9.154;2022-07-23T15:40:55;31.80;61.20
25342;DHT22;13298;48.792;9.154;2022-07-23T15:43:22;31.40;61.90
25342;DHT22;13298;48.792;9.154;2022-07-23T15:45:49;30.90;59.90
25342;DHT22;13298;48.792;9.154;2022-07-23T15:48:15;30.50;61.60
25342;DHT22;13298;48.792;9.154;2022-07-23T15:50:41;30.50;62.40
25342;DHT22;13298;48.792;9.154;2022-07-23T15:53:07;30.60;61.30
25342;DHT22;13298;48.792;9.154;2022-07-23T15:55:33;30.70;62.10
25342;DHT22;13298;48.792;9.154;2022-07-23T15:57:59;30.70;62.10
25342;DHT22;13298;48.792;9.154;2022-07-23T16:00:25;30.70;61.70
25342;DHT22;13298;48.792;9.154;2022-07-23T16:02:51;30.60;62.60
25342;DHT22;13298;48.792;9.154;2022-07-23T16:05:16;30.60;62.50
25342;DHT22;13298;48.792;9.154;2022-07-23T16:07:43;30.70;63.50
25342;DHT22;13298;48.792;9.154;2022-07-23T16:10:09;30.50;63.40
25342;DHT22;13298;48.792;9.154;2022-07-23T16:12:35;30.20;66.10
25342;DHT22;13298;48.792;9.154;2022-07-23T16:15:02;30.10;64.10
25342;DHT22;13298;48.792;9.154;2022-07-23T16:17:28;30.00;62.50
25342;DHT22;13298;48.792;9.154;2022-07-23T16:19:54;30.00;66.00
25342;DHT22;13298;48.792;9.154;2022-07-23T16:22:20;30.00;64.50